createdAt,value
2022-12-24T00:01:37.321Z,97212.41
2022-12-24T00:04:05.990Z,97211.89
2022-12-24T00:06:34.187Z,97209.48
2022-12-24T00:09:03.044Z,97210.84
2022-12-24T00:11:31.375Z,97213.10
2022-12-24T00:13:59.656Z,97215.69
2022-12-24T00:16:28.458Z,97217.41
2022-12-24T00:18:56.661Z,97221.54
2022-12-24T00:21:24.864Z,97228.09
2022-12-24T00:23:53.030Z,97228.43
2022-12-24T00:26:21.233Z,97222.73
2022-12-24T00:28:49.361Z,97223.77
2022-12-24T00:31:19.192Z,97226.19
2022-12-24T00:33:48.389Z,97226.19
2022-12-24T00:36:17.383Z,97227.23
2022-12-24T00:38:45.994Z,97227.05
2022-12-24T00:41:29.405Z,97230.69
2022-12-24T00:44:05.917Z,97233.64
2022-12-24T00:46:35.154Z,97238.84
2022-12-24T00:49:04.875Z,97242.81
2022-12-24T00:51:34.299Z,97241.60
2022-12-24T00:54:02.383Z,97238.67
2022-12-24T00:56:30.476Z,97233.67
2022-12-24T00:58:58.541Z,97232.79
2022-12-24T01:01:27.593Z,97236.08
2022-12-24T01:04:16.568Z,97229.85
2022-12-24T01:06:44.806Z,97231.92
2022-12-24T01:09:13.440Z,97233.48
2022-12-24T01:11:41.991Z,97235.02
2022-12-24T01:14:10.037Z,97224.67
2022-12-24T01:16:38.440Z,97221.40
2022-12-24T01:19:06.691Z,97224.50
2022-12-24T01:21:34.907Z,97220.88
2022-12-24T01:24:03.305Z,97218.11
2022-12-24T01:26:31.540Z,97211.02
2022-12-24T01:28:59.956Z,97213.43
2022-12-24T01:31:28.135Z,97211.72
2022-12-24T01:33:56.220Z,97211.89
2022-12-24T01:36:24.315Z,97212.23
2022-12-24T01:38:52.487Z,97203.23
2022-12-24T01:41:40.964Z,97196.51
2022-12-24T01:44:52.384Z,97192.88
2022-12-24T01:47:30.347Z,97196.70
2022-12-24T01:50:02.112Z,97192.02
2022-12-24T01:52:36.180Z,97192.38
2022-12-24T01:55:13.149Z,97195.30
2022-12-24T01:57:53.449Z,97191.85
2022-12-24T02:00:22.497Z,97182.01
2022-12-24T02:02:54.272Z,97180.11
2022-12-24T02:05:39.940Z,97186.84
2022-12-24T02:08:08.484Z,97189.95
2022-12-24T02:10:36.841Z,97189.77
2022-12-24T02:13:06.359Z,97193.59
2022-12-24T02:15:56.456Z,97194.27
2022-12-24T02:18:43.305Z,97190.45
2022-12-24T02:21:40.732Z,97187.35
2022-12-24T02:24:11.610Z,97181.48
2022-12-24T02:26:45.449Z,97182.68
2022-12-24T02:29:47.626Z,97182.33
2022-12-24T02:32:24.656Z,97186.13
2022-12-24T02:35:11.055Z,97185.25
2022-12-24T02:37:53.254Z,97185.08
2022-12-24T02:40:30.364Z,97193.04
2022-12-24T02:43:03.768Z,97193.56
2022-12-24T02:45:34.860Z,97191.14
2022-12-24T02:48:03.437Z,97189.08
2022-12-24T02:50:31.624Z,97190.63
2022-12-24T02:52:59.691Z,97190.47
2022-12-24T02:55:48.488Z,97187.35
2022-12-24T02:58:19.484Z,97185.45
2022-12-24T03:01:18.087Z,97186.66
2022-12-24T03:04:04.669Z,97184.07
2022-12-24T03:06:38.726Z,97184.07
2022-12-24T03:09:14.973Z,97188.23
2022-12-24T03:11:50.808Z,97194.95
2022-12-24T03:14:20.205Z,97196.16
2022-12-24T03:16:49.742Z,97185.79
2022-12-24T03:19:19.008Z,97180.59
2022-12-24T03:21:49.992Z,97183.20
2022-12-24T03:24:18.010Z,97181.13
2022-12-24T03:26:47.371Z,97178.20
2022-12-24T03:29:15.482Z,97170.95
2022-12-24T03:31:47.219Z,97168.19
2022-12-24T03:34:16.078Z,97166.46
2022-12-24T03:36:44.871Z,97165.94
2022-12-24T03:39:12.969Z,97165.25
2022-12-24T03:41:40.901Z,97165.94
2022-12-24T03:44:08.922Z,97162.14
2022-12-24T03:46:37.031Z,97159.55
2022-12-24T03:49:05.426Z,97157.30
2022-12-24T03:51:33.573Z,97156.78
2022-12-24T03:54:01.548Z,97156.61
2022-12-24T03:56:29.799Z,97155.23
2022-12-24T03:58:57.976Z,97155.23
2022-12-24T04:01:26.279Z,97153.67
2022-12-24T04:03:54.357Z,97152.98
2022-12-24T04:06:22.732Z,97152.29
2022-12-24T04:08:50.887Z,97150.89
2022-12-24T04:11:19.070Z,97151.58
2022-12-24T04:13:47.336Z,97149.49
2022-12-24T04:16:17.839Z,97151.04
2022-12-24T04:18:46.015Z,97151.73
2022-12-24T04:21:14.184Z,97154.33
2022-12-24T04:23:42.541Z,97153.46
2022-12-24T04:26:12.912Z,97157.08
2022-12-24T04:28:42.752Z,97152.77
2022-12-24T04:31:14.426Z,97150.17
2022-12-24T04:33:42.972Z,97149.83
2022-12-24T04:36:14.688Z,97144.15
2022-12-24T04:38:43.638Z,97149.67
2022-12-24T04:41:23.143Z,97143.29
2022-12-24T04:43:54.647Z,97144.14
2022-12-24T04:46:25.706Z,97143.46
2022-12-24T04:48:54.672Z,97142.94
2022-12-24T04:51:24.500Z,97145.69
2022-12-24T04:53:52.861Z,97143.80
2022-12-24T04:56:24.323Z,97147.42
2022-12-24T04:58:53.194Z,97136.39
2022-12-24T05:01:27.895Z,97132.23
2022-12-24T05:03:56.072Z,97139.66
2022-12-24T05:06:27.850Z,97141.05
2022-12-24T05:08:57.589Z,97130.20
2022-12-24T05:11:26.282Z,97126.55
2022-12-24T05:13:54.483Z,97123.27
2022-12-24T05:16:24.250Z,97114.30
2022-12-24T05:18:53.195Z,97106.00
2022-12-24T05:21:23.438Z,97110.98
2022-12-24T05:24:11.098Z,97107.35
2022-12-24T05:26:58.768Z,97099.06
2022-12-24T05:29:26.853Z,97100.44
2022-12-24T05:31:55.072Z,97090.10
2022-12-24T05:34:23.321Z,97081.13
2022-12-24T05:36:51.239Z,97082.67
2022-12-24T05:39:19.270Z,97080.80
2022-12-24T05:41:47.763Z,97070.95
2022-12-24T05:44:16.600Z,97068.88
2022-12-24T05:46:45.019Z,97070.77
2022-12-24T05:49:14.639Z,97068.36
2022-12-24T05:51:43.344Z,97068.20
2022-12-24T05:54:11.463Z,97064.92
2022-12-24T05:56:39.616Z,97064.75
2022-12-24T05:59:07.744Z,97063.73
2022-12-24T06:01:35.885Z,97065.45
2022-12-24T06:04:04.015Z,97067.86
2022-12-24T06:06:32.199Z,97063.21
2022-12-24T06:09:00.286Z,97062.17
2022-12-24T06:11:28.759Z,97062.86
2022-12-24T06:13:57.393Z,97063.55
2022-12-24T06:16:26.343Z,97059.94
2022-12-24T06:18:54.608Z,97058.38
2022-12-24T06:21:22.957Z,97056.31
2022-12-24T06:23:51.273Z,97050.44
2022-12-24T06:26:22.161Z,97055.29
2022-12-24T06:28:52.286Z,97058.40
2022-12-24T06:31:22.959Z,97062.54
2022-12-24T06:33:52.403Z,97060.46
2022-12-24T06:36:23.866Z,97057.36
2022-12-24T06:38:53.493Z,97059.60
2022-12-24T06:41:22.292Z,97070.99
2022-12-24T06:43:52.580Z,97065.64
2022-12-24T06:46:22.231Z,97061.33
2022-12-24T06:48:51.102Z,97071.52
2022-12-24T06:51:20.234Z,97072.38
2022-12-24T06:53:52.993Z,97074.44
2022-12-24T06:56:21.893Z,97071.50
2022-12-24T06:58:50.487Z,97065.46
2022-12-24T07:01:20.213Z,97062.16
2022-12-24T07:03:48.815Z,97059.05
2022-12-24T07:06:29.424Z,97054.05
2022-12-24T07:08:57.600Z,97052.14
2022-12-24T07:11:26.518Z,97059.73
2022-12-24T07:13:54.875Z,97059.55
2022-12-24T07:16:23.169Z,97056.92
2022-12-24T07:18:51.423Z,97053.64
2022-12-24T07:21:19.296Z,97052.75
2022-12-24T07:23:47.874Z,97056.20
2022-12-24T07:26:15.907Z,97058.44
2022-12-24T07:28:43.854Z,97056.53
2022-12-24T07:31:12.125Z,97058.25
2022-12-24T07:33:40.278Z,97055.48
2022-12-24T07:36:14.768Z,97052.01
2022-12-24T07:38:42.893Z,97051.66
2022-12-24T07:41:11.131Z,97055.96
2022-12-24T07:43:39.839Z,97063.71
2022-12-24T07:46:08.712Z,97062.84
2022-12-24T07:48:37.187Z,97068.34
2022-12-24T07:51:05.817Z,97067.98
2022-12-24T07:53:34.032Z,97069.02
2022-12-24T07:56:05.216Z,97063.83
2022-12-24T07:58:36.999Z,97067.63
2022-12-24T08:01:05.268Z,97068.30
2022-12-24T08:03:33.487Z,97078.30
2022-12-24T08:06:01.713Z,97076.69
2022-12-24T08:08:30.032Z,97075.44
2022-12-24T08:11:03.256Z,97081.30
2022-12-24T08:13:31.973Z,97082.85
2022-12-24T08:16:00.246Z,97087.36
2022-12-24T08:18:28.980Z,97091.65
2022-12-24T08:20:57.116Z,97082.11
2022-12-24T08:23:25.421Z,97077.61
2022-12-24T08:25:53.722Z,97078.08
2022-12-24T08:28:22.092Z,97076.14
2022-12-24T08:30:52.117Z,97071.43
2022-12-24T08:33:20.811Z,97075.71
2022-12-24T08:35:50.852Z,97078.30
2022-12-24T08:38:20.029Z,97080.02
2022-12-24T08:40:50.270Z,97074.14
2022-12-24T08:43:19.610Z,97060.47
2022-12-24T08:45:49.754Z,97059.97
2022-12-24T08:48:18.373Z,97064.66
2022-12-24T08:50:46.714Z,97067.23
2022-12-24T08:53:15.327Z,97072.08
2022-12-24T08:55:43.501Z,97074.68
2022-12-24T08:58:11.755Z,97071.91
2022-12-24T09:00:40.167Z,97075.02
2022-12-24T09:03:08.202Z,97074.29
2022-12-24T09:05:40.356Z,97075.97
2022-12-24T09:08:08.530Z,97081.66
2022-12-24T09:10:36.682Z,97081.27
2022-12-24T09:13:05.401Z,97071.55
2022-12-24T09:15:33.653Z,97064.75
2022-12-24T09:18:02.347Z,97060.18
2022-12-24T09:20:30.748Z,97060.63
2022-12-24T09:22:59.052Z,97067.00
2022-12-24T09:25:27.341Z,97059.29
2022-12-24T09:27:55.604Z,97053.52
2022-12-24T09:30:23.657Z,97060.21
2022-12-24T09:32:52.239Z,97072.66
2022-12-24T09:35:20.423Z,97069.23
2022-12-24T09:37:48.543Z,97065.91
2022-12-24T09:40:29.381Z,97061.06
2022-12-24T09:42:57.430Z,97065.70
2022-12-24T09:45:33.756Z,97071.23
2022-12-24T09:48:11.964Z,97077.41
2022-12-24T09:50:46.678Z,97083.02
2022-12-24T09:53:40.961Z,97086.98
2022-12-24T09:56:44.361Z,97086.43
2022-12-24T09:59:22.836Z,97087.75
2022-12-24T10:01:54.647Z,97090.51
2022-12-24T10:04:30.851Z,97098.80
2022-12-24T10:07:08.560Z,97102.58
2022-12-24T10:10:13.683Z,97102.55
2022-12-24T10:13:11.830Z,97097.80
2022-12-24T10:15:46.565Z,97087.92
2022-12-24T10:18:26.356Z,97092.40
2022-12-24T10:20:59.703Z,97096.04
2022-12-24T10:24:01.048Z,97089.70
2022-12-24T10:27:14.993Z,97091.67
2022-12-24T10:29:50.121Z,97091.54
2022-12-24T10:32:25.709Z,97096.63
2022-12-24T10:35:06.595Z,97093.44
2022-12-24T10:37:34.927Z,97094.09
2022-12-24T10:40:03.776Z,97086.94
2022-12-24T10:42:50.275Z,97093.67
2022-12-24T10:45:23.228Z,97089.11
2022-12-24T10:47:56.263Z,97086.08
2022-12-24T10:50:41.388Z,97081.45
2022-12-24T10:53:42.239Z,97088.41
2022-12-24T10:56:17.013Z,97091.33
2022-12-24T10:58:51.389Z,97087.89
2022-12-24T11:01:21.363Z,97087.26
2022-12-24T11:04:02.548Z,97083.73
2022-12-24T11:06:31.355Z,97089.19
2022-12-24T11:09:21.769Z,97092.09
2022-12-24T11:11:50.599Z,97104.25
2022-12-24T11:14:21.086Z,97103.00
2022-12-24T11:16:55.114Z,97103.84
2022-12-24T11:19:41.635Z,97105.02
2022-12-24T11:22:24.129Z,97102.78
2022-12-24T11:25:02.724Z,97105.00
2022-12-24T11:27:47.477Z,97101.89
2022-12-24T11:30:16.809Z,97106.62
2022-12-24T11:32:47.972Z,97110.05
2022-12-24T11:35:17.513Z,97111.80
2022-12-24T11:37:45.589Z,97114.77
2022-12-24T11:40:23.255Z,97120.54
2022-12-24T11:42:53.984Z,97122.52
2022-12-24T11:45:26.548Z,97127.80
2022-12-24T11:47:56.172Z,97125.95
2022-12-24T11:50:27.417Z,97134.39
2022-12-24T11:53:03.940Z,97139.09
2022-12-24T11:55:53.138Z,97138.97
2022-12-24T11:58:56.832Z,97143.61
2022-12-24T12:01:40.745Z,97146.68
2022-12-24T12:04:23.052Z,97160.11
2022-12-24T12:07:00.536Z,97167.19
2022-12-24T12:09:38.171Z,97173.52
2022-12-24T12:12:12.988Z,97167.13
2022-12-24T12:14:48.380Z,97166.31
2022-12-24T12:17:35.964Z,97167.39
2022-12-24T12:20:17.075Z,97167.56
2022-12-24T12:22:56.244Z,97164.96
2022-12-24T12:25:33.455Z,97170.71
2022-12-24T12:28:07.419Z,97166.92
2022-12-24T12:30:38.484Z,97166.55
2022-12-24T12:33:18.775Z,97172.66
2022-12-24T12:35:49.326Z,97172.15
2022-12-24T12:38:27.152Z,97170.58
2022-12-24T12:41:16.889Z,97182.73
2022-12-24T12:44:22.789Z,97179.77
2022-12-24T12:47:03.071Z,97181.83
2022-12-24T12:50:00.491Z,97189.21
2022-12-24T12:52:47.133Z,97189.70
2022-12-24T12:55:25.181Z,97200.09
2022-12-24T12:57:58.927Z,97203.40
2022-12-24T13:00:29.842Z,97205.14
2022-12-24T13:03:19.897Z,97208.39
2022-12-24T13:06:00.291Z,97210.25
2022-12-24T13:08:38.408Z,97222.55
2022-12-24T13:11:29.300Z,97222.55
2022-12-24T13:14:38.914Z,97221.17
2022-12-24T13:17:18.859Z,97225.69
2022-12-24T13:20:27.318Z,97229.69
2022-12-24T13:23:12.086Z,97233.67
2022-12-24T13:25:43.116Z,97233.52
2022-12-24T13:28:18.660Z,97234.23
2022-12-24T13:30:49.186Z,97236.15
2022-12-24T13:33:35.889Z,97236.16
2022-12-24T13:36:06.700Z,97232.00
2022-12-24T13:38:48.937Z,97231.65
2022-12-24T13:41:40.022Z,97236.34
2022-12-24T13:44:15.066Z,97234.52
2022-12-24T13:46:47.320Z,97242.06
2022-12-24T13:49:25.941Z,97235.73
2022-12-24T13:52:11.279Z,97236.64
2022-12-24T13:54:43.110Z,97237.70
2022-12-24T13:57:29.468Z,97244.47
2022-12-24T14:00:09.049Z,97247.25
2022-12-24T14:02:49.782Z,97249.66
2022-12-24T14:05:29.263Z,97253.64
2022-12-24T14:07:59.790Z,97256.42
2022-12-24T14:10:58.863Z,97262.67
2022-12-24T14:13:39.467Z,97260.77
2022-12-24T14:16:20.811Z,97259.20
2022-12-24T14:19:18.674Z,97261.46
2022-12-24T14:21:56.416Z,97269.08
2022-12-24T14:24:35.194Z,97274.79
2022-12-24T14:27:39.025Z,97280.70
2022-12-24T14:30:20.617Z,97287.69
2022-12-24T14:32:51.008Z,97293.63
2022-12-24T14:35:26.595Z,97294.36
2022-12-24T14:38:05.651Z,97293.68
2022-12-24T14:40:43.714Z,97293.01
2022-12-24T14:43:32.449Z,97297.86
2022-12-24T14:46:32.083Z,97304.79
2022-12-24T14:49:27.794Z,97311.22
2022-12-24T14:52:45.929Z,97312.45
2022-12-24T14:55:29.675Z,97315.08
2022-12-24T14:58:25.876Z,97323.41
2022-12-24T15:00:57.617Z,97329.86
2022-12-24T15:03:29.060Z,97330.55
2022-12-24T15:06:05.171Z,97332.11
2022-12-24T15:08:45.755Z,97337.14
2022-12-24T15:11:23.504Z,97338.87
2022-12-24T15:13:58.658Z,97345.95
2022-12-24T15:16:37.209Z,97353.75
2022-12-24T15:19:21.507Z,97356.52
2022-12-24T15:21:50.573Z,97359.64
2022-12-24T15:24:34.457Z,97357.05
2022-12-24T15:27:16.897Z,97365.88
2022-12-24T15:29:47.160Z,97365.88
2022-12-24T15:32:18.095Z,97370.38
2022-12-24T15:34:49.218Z,97372.11
2022-12-24T15:37:29.990Z,97371.42
2022-12-24T15:40:11.577Z,97376.45
2022-12-24T15:42:44.364Z,97381.34
2022-12-24T15:45:27.227Z,97387.07
2022-12-24T15:48:10.036Z,97393.48
2022-12-24T15:50:44.792Z,97396.08
2022-12-24T15:53:22.909Z,97397.12
2022-12-24T15:56:02.876Z,97393.80
2022-12-24T15:58:35.118Z,97391.52
2022-12-24T16:01:09.866Z,97389.09
2022-12-24T16:03:54.336Z,97383.86
2022-12-24T16:06:23.856Z,97382.11
2022-12-24T16:08:52.920Z,97382.61
2022-12-24T16:11:23.803Z,97385.73
2022-12-24T16:14:14.527Z,97386.39
2022-12-24T16:16:48.290Z,97391.55
2022-12-24T16:19:22.867Z,97387.38
2022-12-24T16:21:57.420Z,97382.16
2022-12-24T16:24:31.057Z,97382.36
2022-12-24T16:26:58.975Z,97389.86
2022-12-24T16:29:27.885Z,97394.23
2022-12-24T16:31:58.255Z,97399.27
2022-12-24T16:34:29.135Z,97398.77
2022-12-24T16:36:58.580Z,97397.73
2022-12-24T16:39:32.352Z,97399.97
2022-12-24T16:42:21.942Z,97400.49
2022-12-24T16:44:53.098Z,97399.63
2022-12-24T16:47:35.721Z,97400.15
2022-12-24T16:50:08.437Z,97400.68
2022-12-24T16:52:36.488Z,97401.21
2022-12-24T16:55:04.934Z,97405.55
2022-12-24T16:57:34.350Z,97409.34
2022-12-24T17:00:04.937Z,97415.05
2022-12-24T17:02:33.328Z,97420.95
2022-12-24T17:05:01.576Z,97424.10
2022-12-24T17:07:29.693Z,97420.83
2022-12-24T17:09:57.811Z,97426.73
2022-12-24T17:12:26.028Z,97434.34
2022-12-24T17:14:54.159Z,97435.04
2022-12-24T17:17:28.792Z,97435.04
2022-12-24T17:19:57.702Z,97436.25
2022-12-24T17:22:27.912Z,97442.84
2022-12-24T17:24:56.263Z,97448.21
2022-12-24T17:27:24.727Z,97448.39
2022-12-24T17:29:53.027Z,97450.98
2022-12-24T17:32:21.056Z,97458.95
2022-12-24T17:34:49.101Z,97463.61
2022-12-24T17:37:17.148Z,97464.83
2022-12-24T17:39:45.430Z,97463.09
2022-12-24T17:42:13.520Z,97459.95
2022-12-24T17:44:41.684Z,97460.11
2022-12-24T17:47:10.021Z,97460.80
2022-12-24T17:49:38.039Z,97462.01
2022-12-24T17:52:06.428Z,97462.00
2022-12-24T17:54:34.758Z,97465.99
2022-12-24T17:57:03.032Z,97473.25
2022-12-24T17:59:31.789Z,97474.61
2022-12-24T18:02:00.474Z,97477.38
2022-12-24T18:04:28.835Z,97472.51
2022-12-24T18:07:02.035Z,97471.30
2022-12-24T18:09:31.158Z,97469.55
2022-12-24T18:11:59.340Z,97471.80
2022-12-24T18:14:27.910Z,97477.69
2022-12-24T18:16:56.294Z,97482.56
2022-12-24T18:19:24.550Z,97483.24
2022-12-24T18:21:52.662Z,97479.08
2022-12-24T18:24:20.965Z,97477.15
2022-12-24T18:26:49.606Z,97476.62
2022-12-24T18:29:18.186Z,97479.20
2022-12-24T18:31:46.613Z,97483.00
2022-12-24T18:34:15.254Z,97483.53
2022-12-24T18:36:43.224Z,97485.77
2022-12-24T18:39:11.469Z,97488.88
2022-12-24T18:41:39.633Z,97493.70
2022-12-24T18:44:09.821Z,97491.61
2022-12-24T18:46:37.837Z,97495.59
2022-12-24T18:49:05.892Z,97494.88
2022-12-24T18:51:35.588Z,97498.33
2022-12-24T18:54:05.368Z,97503.16
2022-12-24T18:56:33.499Z,97502.61
2022-12-24T18:59:02.971Z,97507.26
2022-12-24T19:01:33.622Z,97507.59
2022-12-24T19:04:02.699Z,97511.39
2022-12-24T19:06:30.693Z,97507.39
2022-12-24T19:09:00.895Z,97509.46
2022-12-24T19:11:32.273Z,97509.25
2022-12-24T19:14:01.919Z,97510.61
2022-12-24T19:16:33.420Z,97515.81
2022-12-24T19:19:03.070Z,97521.33
2022-12-24T19:21:32.030Z,97523.02
2022-12-24T19:24:00.554Z,97525.41
2022-12-24T19:26:28.813Z,97526.76
2022-12-24T19:28:56.970Z,97530.70
2022-12-24T19:31:26.285Z,97534.83
2022-12-24T19:33:56.460Z,97537.39
2022-12-24T19:36:27.732Z,97542.75
2022-12-24T19:38:56.894Z,97545.31
2022-12-24T19:41:28.008Z,97549.64
2022-12-24T19:43:59.673Z,97549.46
2022-12-24T19:46:32.811Z,97554.64
2022-12-24T19:49:07.899Z,97553.08
2022-12-24T19:51:36.749Z,97556.54
2022-12-24T19:54:06.518Z,97556.52
2022-12-24T19:56:35.823Z,97554.55
2022-12-24T19:59:04.420Z,97554.52
2022-12-24T20:01:35.298Z,97554.99
2022-12-24T20:04:03.850Z,97558.77
2022-12-24T20:06:35.373Z,97558.38
2022-12-24T20:09:07.141Z,97557.80
2022-12-24T20:11:36.264Z,97553.94
2022-12-24T20:14:05.866Z,97557.38
2022-12-24T20:16:34.528Z,97566.55
2022-12-24T20:19:05.195Z,97570.35
2022-12-24T20:21:34.480Z,97570.85
2022-12-24T20:24:02.936Z,97575.85
2022-12-24T20:26:31.387Z,97575.30
2022-12-24T20:29:04.671Z,97573.88
2022-12-24T20:31:33.880Z,97571.56
2022-12-24T20:34:04.088Z,97578.31
2022-12-24T20:36:32.182Z,97580.39
2022-12-24T20:39:00.480Z,97582.28
2022-12-24T20:41:30.211Z,97582.80
2022-12-24T20:44:00.431Z,97579.64
2022-12-24T20:46:31.462Z,97584.14
2022-12-24T20:49:00.119Z,97591.61
2022-12-24T20:51:29.200Z,97601.72
2022-12-24T20:54:00.938Z,97607.79
2022-12-24T20:56:31.123Z,97609.52
2022-12-24T20:59:01.506Z,97614.74
2022-12-24T21:01:30.609Z,97618.23
2022-12-24T21:04:05.091Z,97616.14
2022-12-24T21:06:34.818Z,97620.62
2022-12-24T21:09:04.174Z,97623.05
2022-12-24T21:11:51.762Z,97622.31
2022-12-24T21:14:23.703Z,97620.38
2022-12-24T21:16:53.475Z,97620.55
2022-12-24T21:19:25.018Z,97616.56
2022-12-24T21:21:55.199Z,97621.27
2022-12-24T21:24:24.935Z,97622.34
2022-12-24T21:26:53.548Z,97622.91
2022-12-24T21:29:21.756Z,97622.76
2022-12-24T21:31:50.098Z,97618.98
2022-12-24T21:34:18.281Z,97618.32
2022-12-24T21:36:46.889Z,97617.82
2022-12-24T21:39:15.342Z,97625.14
2022-12-24T21:41:43.600Z,97629.33
2022-12-24T21:44:11.657Z,97629.66
2022-12-24T21:46:39.826Z,97630.52
2022-12-24T21:49:28.954Z,97623.39
2022-12-24T21:51:59.003Z,97624.94
2022-12-24T21:54:28.665Z,97627.17
2022-12-24T21:57:18.513Z,97624.91
2022-12-24T21:59:49.165Z,97629.61
2022-12-24T22:02:19.014Z,97631.37
2022-12-24T22:04:47.256Z,97634.53
2022-12-24T22:07:45.174Z,97637.33
2022-12-24T22:10:32.992Z,97641.36
2022-12-24T22:13:06.322Z,97641.02
2022-12-24T22:15:35.965Z,97642.23
2022-12-24T22:18:04.155Z,97643.61
2022-12-24T22:20:32.158Z,97647.41
2022-12-24T22:23:00.238Z,97650.35
2022-12-24T22:25:32.058Z,97649.12
2022-12-24T22:28:00.210Z,97649.95
2022-12-24T22:30:28.699Z,97652.55
2022-12-24T22:32:57.820Z,97655.13
2022-12-24T22:35:26.529Z,97653.36
2022-12-24T22:37:59.665Z,97656.83
2022-12-24T22:40:28.870Z,97659.08
2022-12-24T22:42:56.896Z,97665.84
2022-12-24T22:45:24.960Z,97667.77
2022-12-24T22:47:53.422Z,97673.16
2022-12-24T22:50:22.574Z,97666.39
2022-12-24T22:52:50.518Z,97670.42
2022-12-24T22:55:18.618Z,97675.45
2022-12-24T22:57:46.735Z,97676.52
2022-12-24T23:00:39.532Z,97680.49
2022-12-24T23:03:08.598Z,97681.53
2022-12-24T23:05:37.655Z,97684.31
2022-12-24T23:08:07.075Z,97687.40
2022-12-24T23:10:36.378Z,97692.61
2022-12-24T23:13:22.999Z,97697.33
2022-12-24T23:15:51.528Z,97700.16
2022-12-24T23:18:19.752Z,97706.62
2022-12-24T23:20:48.345Z,97713.94
2022-12-24T23:23:16.476Z,97721.08
2022-12-24T23:25:44.671Z,97723.49
2022-12-24T23:28:13.073Z,97725.04
2022-12-24T23:30:41.488Z,97730.42
2022-12-24T23:33:09.843Z,97728.14
2022-12-24T23:35:38.103Z,97729.17
2022-12-24T23:38:06.279Z,97735.10
2022-12-24T23:40:34.522Z,97734.59
2022-12-24T23:43:02.613Z,97737.38
2022-12-24T23:45:30.724Z,97739.49
2022-12-24T23:47:58.902Z,97747.34
2022-12-24T23:50:27.595Z,97748.06
2022-12-24T23:52:55.591Z,97747.92
2022-12-24T23:55:23.800Z,97751.06
2022-12-24T23:57:52.316Z,97749.16
